sensor_id;sensor_type;location;lat;lon;timestamp;temperature;humidity
11573;DHT22;5842;52.426;4.886;2022-07-04T00:00:17;13.50;99.90
11573;DHT22;5842;52.426;4.886;2022-07-04T00:02:46;13.40;99.90
11573;DHT22;5842;52.426;4.886;2022-07-04T00:05:15;13.40;99.90
11573;DHT22;5842;52.426;4.886;2022-07-04T00:07:44;13.40;99.90
11573;DHT22;5842;52.426;4.886;2022-07-04T00:10:13;13.40;99.90
11573;DHT22;5842;52.426;4.886;2022-07-04T00:12:41;13.40;99.90
11573;DHT22;5842;52.426;4.886;2022-07-04T00:15:09;13.40;99.90
11573;DHT22;5842;52.426;4.886;2022-07-04T00:17:37;13.40;99.90
11573;DHT22;5842;52.426;4.886;2022-07-04T00:20:05;13.40;99.90
11573;DHT22;5842;52.426;4.886;2022-07-04T00:22:35;13.40;99.90
11573;DHT22;5842;52.426;4.886;2022-07-04T00:25:02;13.40;99.90
11573;DHT22;5842;52.426;4.886;2022-07-04T00:27:30;13.50;99.90
11573;DHT22;5842;52.426;4.886;2022-07-04T00:29:57;13.40;99.90
11573;DHT22;5842;52.426;4.886;2022-07-04T00:32:24;13.40;99.90
11573;DHT22;5842;52.426;4.886;2022-07-04T00:34:51;13.30;99.90
11573;DHT22;5842;52.426;4.886;2022-07-04T00:37:19;13.30;99.90
11573;DHT22;5842;52.426;4.886;2022-07-04T00:42:15;13.20;99.90
11573;DHT22;5842;52.426;4.886;2022-07-04T00:44:43;13.20;99.90
11573;DHT22;5842;52.426;4.886;2022-07-04T00:47:10;13.20;99.90
11573;DHT22;5842;52.426;4.886;2022-07-04T00:49:37;13.20;99.90
11573;DHT22;5842;52.426;4.886;2022-07-04T00:52:06;13.20;99.90
11573;DHT22;5842;52.426;4.886;2022-07-04T00:54:34;13.20;99.90
11573;DHT22;5842;52.426;4.886;2022-07-04T00:57:03;13.10;99.90
11573;DHT22;5842;52.426;4.886;2022-07-04T00:59:31;13.10;99.90
11573;DHT22;5842;52.426;4.886;2022-07-04T01:01:58;13.10;99.90
11573;DHT22;5842;52.426;4.886;2022-07-04T01:04:25;13.00;99.90
11573;DHT22;5842;52.426;4.886;2022-07-04T01:06:55;13.10;99.90
11573;DHT22;5842;52.426;4.886;2022-07-04T01:09:22;13.10;99.90
11573;DHT22;5842;52.426;4.886;2022-07-04T01:11:50;13.10;99.90
11573;DHT22;5842;52.426;4.886;2022-07-04T01:14:18;13.10;99.90
11573;DHT22;5842;52.426;4.886;2022-07-04T01:16:46;13.10;99.90
11573;DHT22;5842;52.426;4.886;2022-07-04T01:19:13;13.10;99.90
11573;DHT22;5842;52.426;4.886;2022-07-04T01:21:41;13.10;99.90
11573;DHT22;5842;52.426;4.886;2022-07-04T01:26:38;13.00;99.90
11573;DHT22;5842;52.426;4.886;2022-07-04T01:29:05;13.00;99.90
11573;DHT22;5842;52.426;4.886;2022-07-04T01:31:33;13.00;99.90
11573;DHT22;5842;52.426;4.886;2022-07-04T01:34:00;13.00;99.90
11573;DHT22;5842;52.426;4.886;2022-07-04T01:36:28;13.00;99.90
11573;DHT22;5842;52.426;4.886;2022-07-04T01:38:56;13.00;99.90
11573;DHT22;5842;52.426;4.886;2022-07-04T01:41:24;13.00;99.90
11573;DHT22;5842;52.426;4.886;2022-07-04T01:43:51;13.10;99.90
11573;DHT22;5842;52.426;4.886;2022-07-04T01:46:19;13.10;99.90
11573;DHT22;5842;52.426;4.886;2022-07-04T01:48:46;13.10;99.90
11573;DHT22;5842;52.426;4.886;2022-07-04T01:51:13;13.10;99.90
11573;DHT22;5842;52.426;4.886;2022-07-04T01:53:41;13.00;99.90
11573;DHT22;5842;52.426;4.886;2022-07-04T01:56:09;13.00;99.90
11573;DHT22;5842;52.426;4.886;2022-07-04T01:58:36;13.10;99.90
11573;DHT22;5842;52.426;4.886;2022-07-04T02:01:03;13.10;99.90
11573;DHT22;5842;52.426;4.886;2022-07-04T02:03:48;13.00;99.90
11573;DHT22;5842;52.426;4.886;2022-07-04T02:06:15;13.10;99.90
11573;DHT22;5842;52.426;4.886;2022-07-04T02:08:42;13.10;99.90
11573;DHT22;5842;52.426;4.886;2022-07-04T02:11:28;13.10;99.90
11573;DHT22;5842;52.426;4.886;2022-07-04T02:14:15;13.10;99.90
11573;DHT22;5842;52.426;4.886;2022-07-04T02:16:41;13.10;99.90
11573;DHT22;5842;52.426;4.886;2022-07-04T02:19:08;13.10;99.90
11573;DHT22;5842;52.426;4.886;2022-07-04T02:21:35;13.10;99.90
11573;DHT22;5842;52.426;4.886;2022-07-04T02:24:03;13.10;99.90
11573;DHT22;5842;52.426;4.886;2022-07-04T02:26:31;13.00;99.90
11573;DHT22;5842;52.426;4.886;2022-07-04T02:28:58;13.00;99.90
11573;DHT22;5842;52.426;4.886;2022-07-04T02:31:26;13.00;99.90
11573;DHT22;5842;52.426;4.886;2022-07-04T02:33:53;13.00;99.90
11573;DHT22;5842;52.426;4.886;2022-07-04T02:36:20;13.00;99.90
11573;DHT22;5842;52.426;4.886;2022-07-04T02:38:47;13.00;99.90
11573;DHT22;5842;52.426;4.886;2022-07-04T02:41:15;12.90;99.90
11573;DHT22;5842;52.426;4.886;2022-07-04T02:43:43;12.90;99.90
11573;DHT22;5842;52.426;4.886;2022-07-04T02:46:10;12.90;99.90
11573;DHT22;5842;52.426;4.886;2022-07-04T02:48:38;12.90;99.90
11573;DHT22;5842;52.426;4.886;2022-07-04T02:51:05;12.90;99.90
11573;DHT22;5842;52.426;4.886;2022-07-04T02:53:32;12.90;99.90
11573;DHT22;5842;52.426;4.886;2022-07-04T02:55:59;12.90;99.90
11573;DHT22;5842;52.426;4.886;2022-07-04T02:58:29;12.90;99.90
11573;DHT22;5842;52.426;4.886;2022-07-04T03:00:58;12.90;99.90
11573;DHT22;5842;52.426;4.886;2022-07-04T03:03:26;12.90;99.90
11573;DHT22;5842;52.426;4.886;2022-07-04T03:05:53;12.90;99.90
11573;DHT22;5842;52.426;4.886;2022-07-04T03:08:21;12.90;99.90
11573;DHT22;5842;52.426;4.886;2022-07-04T03:10:49;12.90;99.90
11573;DHT22;5842;52.426;4.886;2022-07-04T03:13:17;12.90;99.90
11573;DHT22;5842;52.426;4.886;2022-07-04T03:15:44;12.90;99.90
11573;DHT22;5842;52.426;4.886;2022-07-04T03:18:13;12.90;99.90
11573;DHT22;5842;52.426;4.886;2022-07-04T03:20:40;12.90;99.90
11573;DHT22;5842;52.426;4.886;2022-07-04T03:23:07;12.90;99.90
11573;DHT22;5842;52.426;4.886;2022-07-04T03:25:34;12.90;99.90
11573;DHT22;5842;52.426;4.886;2022-07-04T03:28:02;12.90;99.90
11573;DHT22;5842;52.426;4.886;2022-07-04T03:30:29;13.00;99.90
11573;DHT22;5842;52.426;4.886;2022-07-04T03:32:56;13.00;99.90
11573;DHT22;5842;52.426;4.886;2022-07-04T03:35:25;13.00;99.90
11573;DHT22;5842;52.426;4.886;2022-07-04T03:37:53;13.10;99.90
11573;DHT22;5842;52.426;4.886;2022-07-04T03:40:20;13.10;99.90
11573;DHT22;5842;52.426;4.886;2022-07-04T03:42:48;13.10;99.90
11573;DHT22;5842;52.426;4.886;2022-07-04T03:45:15;13.10;99.90
11573;DHT22;5842;52.426;4.886;2022-07-04T03:47:42;13.20;99.90
11573;DHT22;5842;52.426;4.886;2022-07-04T03:50:09;13.20;99.90
11573;DHT22;5842;52.426;4.886;2022-07-04T03:52:38;13.30;99.90
11573;DHT22;5842;52.426;4.886;2022-07-04T03:55:08;13.30;99.90
11573;DHT22;5842;52.426;4.886;2022-07-04T03:57:35;13.50;99.90
11573;DHT22;5842;52.426;4.886;2022-07-04T04:00:03;13.50;99.90
11573;DHT22;5842;52.426;4.886;2022-07-04T04:02:30;13.70;99.90
11573;DHT22;5842;52.426;4.886;2022-07-04T04:04:57;13.80;99.90
11573;DHT22;5842;52.426;4.886;2022-07-04T04:07:43;14.00;99.90
11573;DHT22;5842;52.426;4.886;2022-07-04T04:10:10;14.60;99.90
11573;DHT22;5842;52.426;4.886;2022-07-04T04:12:38;15.00;99.90
11573;DHT22;5842;52.426;4.886;2022-07-04T04:15:06;15.10;99.90
11573;DHT22;5842;52.426;4.886;2022-07-04T04:17:34;15.10;99.90
11573;DHT22;5842;52.426;4.886;2022-07-04T04:20:01;15.00;99.90
11573;DHT22;5842;52.426;4.886;2022-07-04T04:22:28;14.90;99.90
11573;DHT22;5842;52.426;4.886;2022-07-04T04:24:57;14.80;99.90
11573;DHT22;5842;52.426;4.886;2022-07-04T04:27:25;14.70;99.90
11573;DHT22;5842;52.426;4.886;2022-07-04T04:29:52;14.70;99.90
11573;DHT22;5842;52.426;4.886;2022-07-04T04:32:19;15.10;99.90
11573;DHT22;5842;52.426;4.886;2022-07-04T04:34:47;16.00;99.90
11573;DHT22;5842;52.426;4.886;2022-07-04T04:37:15;16.90;99.90
11573;DHT22;5842;52.426;4.886;2022-07-04T04:39:42;17.80;99.90
11573;DHT22;5842;52.426;4.886;2022-07-04T04:42:10;18.80;99.90
11573;DHT22;5842;52.426;4.886;2022-07-04T04:44:38;19.90;99.90
11573;DHT22;5842;52.426;4.886;2022-07-04T04:47:05;21.00;99.90
11573;DHT22;5842;52.426;4.886;2022-07-04T04:49:32;21.70;99.90
11573;DHT22;5842;52.426;4.886;2022-07-04T04:51:59;22.10;99.90
11573;DHT22;5842;52.426;4.886;2022-07-04T04:54:27;22.00;99.90
11573;DHT22;5842;52.426;4.886;2022-07-04T04:56:53;21.80;99.90
11573;DHT22;5842;52.426;4.886;2022-07-04T04:59:25;21.40;99.90
11573;DHT22;5842;52.426;4.886;2022-07-04T05:01:52;21.50;99.90
11573;DHT22;5842;52.426;4.886;2022-07-04T05:04:19;22.30;99.90
11573;DHT22;5842;52.426;4.886;2022-07-04T05:09:16;24.70;99.90
11573;DHT22;5842;52.426;4.886;2022-07-04T05:11:44;25.70;99.90
11573;DHT22;5842;52.426;4.886;2022-07-04T05:14:12;26.50;99.30
11573;DHT22;5842;52.426;4.886;2022-07-04T05:16:40;27.50;98.00
11573;DHT22;5842;52.426;4.886;2022-07-04T05:19:08;28.30;95.60
11573;DHT22;5842;52.426;4.886;2022-07-04T05:21:34;28.70;93.30
11573;DHT22;5842;52.426;4.886;2022-07-04T05:24:01;29.30;91.80
11573;DHT22;5842;52.426;4.886;2022-07-04T05:28:55;29.70;89.20
11573;DHT22;5842;52.426;4.886;2022-07-04T05:31:23;30.30;88.10
11573;DHT22;5842;52.426;4.886;2022-07-04T05:33:52;30.40;87.30
11573;DHT22;5842;52.426;4.886;2022-07-04T05:36:19;30.50;83.70
11573;DHT22;5842;52.426;4.886;2022-07-04T05:38:47;30.80;82.10
11573;DHT22;5842;52.426;4.886;2022-07-04T05:41:13;30.70;82.60
11573;DHT22;5842;52.426;4.886;2022-07-04T05:43:40;30.80;80.50
11573;DHT22;5842;52.426;4.886;2022-07-04T05:46:07;30.90;80.00
11573;DHT22;5842;52.426;4.886;2022-07-04T05:48:34;31.00;78.40
11573;DHT22;5842;52.426;4.886;2022-07-04T05:51:07;31.00;78.80
11573;DHT22;5842;52.426;4.886;2022-07-04T05:56:01;31.60;75.10
11573;DHT22;5842;52.426;4.886;2022-07-04T05:58:28;31.60;74.70
11573;DHT22;5842;52.426;4.886;2022-07-04T06:00:55;32.20;73.00
11573;DHT22;5842;52.426;4.886;2022-07-04T06:03:22;33.00;71.80
11573;DHT22;5842;52.426;4.886;2022-07-04T06:05:52;33.50;69.60
11573;DHT22;5842;52.426;4.886;2022-07-04T06:08:25;33.50;66.70
11573;DHT22;5842;52.426;4.886;2022-07-04T06:10:52;33.40;67.00
11573;DHT22;5842;52.426;4.886;2022-07-04T06:13:19;33.40;66.50
11573;DHT22;5842;52.426;4.886;2022-07-04T06:15:49;34.00;65.40
11573;DHT22;5842;52.426;4.886;2022-07-04T06:18:20;34.10;63.60
11573;DHT22;5842;52.426;4.886;2022-07-04T06:21:05;34.40;62.30
11573;DHT22;5842;52.426;4.886;2022-07-04T06:23:41;34.80;62.50
11573;DHT22;5842;52.426;4.886;2022-07-04T06:26:08;35.00;59.10
11573;DHT22;5842;52.426;4.886;2022-07-04T06:28:35;34.90;59.90
11573;DHT22;5842;52.426;4.886;2022-07-04T06:31:04;34.80;59.90
11573;DHT22;5842;52.426;4.886;2022-07-04T06:34:13;35.10;59.40
11573;DHT22;5842;52.426;4.886;2022-07-04T06:36:48;35.30;58.30
11573;DHT22;5842;52.426;4.886;2022-07-04T06:45:37;35.70;57.60
11573;DHT22;5842;52.426;4.886;2022-07-04T06:48:05;35.60;56.00
11573;DHT22;5842;52.426;4.886;2022-07-04T06:50:43;35.50;56.80
11573;DHT22;5842;52.426;4.886;2022-07-04T06:53:21;35.70;56.60
11573;DHT22;5842;52.426;4.886;2022-07-04T06:55:51;35.90;55.60
11573;DHT22;5842;52.426;4.886;2022-07-04T06:58:29;35.40;56.10
11573;DHT22;5842;52.426;4.886;2022-07-04T07:01:03;35.40;56.00
11573;DHT22;5842;52.426;4.886;2022-07-04T07:03:32;35.50;55.30
11573;DHT22;5842;52.426;4.886;2022-07-04T07:05:59;35.50;55.50
11573;DHT22;5842;52.426;4.886;2022-07-04T07:08:39;35.60;54.60
11573;DHT22;5842;52.426;4.886;2022-07-04T07:11:17;35.40;55.10
11573;DHT22;5842;52.426;4.886;2022-07-04T07:13:58;35.20;55.80
11573;DHT22;5842;52.426;4.886;2022-07-04T07:16:35;35.20;55.90
11573;DHT22;5842;52.426;4.886;2022-07-04T07:19:02;35.20;55.10
11573;DHT22;5842;52.426;4.886;2022-07-04T07:55:13;34.20;55.70
11573;DHT22;5842;52.426;4.886;2022-07-04T07:57:47;32.50;58.60
11573;DHT22;5842;52.426;4.886;2022-07-04T08:01:46;32.20;59.20
11573;DHT22;5842;52.426;4.886;2022-07-04T08:03:41;31.00;61.20
11573;DHT22;5842;52.426;4.886;2022-07-04T08:12:37;33.50;55.70
11573;DHT22;5842;52.426;4.886;2022-07-04T08:15:07;31.10;59.90
11573;DHT22;5842;52.426;4.886;2022-07-04T08:20:01;29.70;65.00
11573;DHT22;5842;52.426;4.886;2022-07-04T08:22:28;29.00;63.80
11573;DHT22;5842;52.426;4.886;2022-07-04T08:24:55;28.30;67.90
11573;DHT22;5842;52.426;4.886;2022-07-04T08:27:22;27.90;69.10
11573;DHT22;5842;52.426;4.886;2022-07-04T08:29:51;27.50;70.10
11573;DHT22;5842;52.426;4.886;2022-07-04T08:32:18;27.20;72.10
11573;DHT22;5842;52.426;4.886;2022-07-04T08:34:45;27.60;70.70
11573;DHT22;5842;52.426;4.886;2022-07-04T08:37:12;28.40;69.40
11573;DHT22;5842;52.426;4.886;2022-07-04T08:39:40;29.30;65.90
11573;DHT22;5842;52.426;4.886;2022-07-04T08:42:09;29.50;65.60
11573;DHT22;5842;52.426;4.886;2022-07-04T08:44:39;30.30;63.10
11573;DHT22;5842;52.426;4.886;2022-07-04T08:47:09;30.50;61.80
11573;DHT22;5842;52.426;4.886;2022-07-04T08:49:36;31.20;62.30
11573;DHT22;5842;52.426;4.886;2022-07-04T08:52:05;31.50;59.20
11573;DHT22;5842;52.426;4.886;2022-07-04T08:54:32;29.90;62.60
11573;DHT22;5842;52.426;4.886;2022-07-04T08:57:22;28.60;66.00
11573;DHT22;5842;52.426;4.886;2022-07-04T09:00:08;27.90;69.10
11573;DHT22;5842;52.426;4.886;2022-07-04T09:02:37;27.70;70.00
11573;DHT22;5842;52.426;4.886;2022-07-04T09:05:04;27.30;72.10
11573;DHT22;5842;52.426;4.886;2022-07-04T09:07:33;28.00;64.90
11573;DHT22;5842;52.426;4.886;2022-07-04T09:10:00;28.00;65.50
11573;DHT22;5842;52.426;4.886;2022-07-04T09:12:29;27.20;69.30
11573;DHT22;5842;52.426;4.886;2022-07-04T09:14:56;26.40;72.70
11573;DHT22;5842;52.426;4.886;2022-07-04T09:17:25;25.70;74.10
11573;DHT22;5842;52.426;4.886;2022-07-04T09:20:15;25.50;75.90
11573;DHT22;5842;52.426;4.886;2022-07-04T09:22:43;25.90;76.40
11573;DHT22;5842;52.426;4.886;2022-07-04T09:25:11;25.80;76.10
11573;DHT22;5842;52.426;4.886;2022-07-04T09:27:41;25.60;75.70
11573;DHT22;5842;52.426;4.886;2022-07-04T09:30:10;25.30;76.70
11573;DHT22;5842;52.426;4.886;2022-07-04T09:32:39;25.00;76.10
11573;DHT22;5842;52.426;4.886;2022-07-04T09:35:08;24.50;78.20
11573;DHT22;5842;52.426;4.886;2022-07-04T09:37:42;24.30;79.00
11573;DHT22;5842;52.426;4.886;2022-07-04T09:40:21;24.40;80.50
11573;DHT22;5842;52.426;4.886;2022-07-04T09:42:48;25.30;80.50
11573;DHT22;5842;52.426;4.886;2022-07-04T09:45:15;26.50;76.20
11573;DHT22;5842;52.426;4.886;2022-07-04T09:47:45;27.40;71.40
11573;DHT22;5842;52.426;4.886;2022-07-04T09:50:14;27.50;71.70
11573;DHT22;5842;52.426;4.886;2022-07-04T09:52:48;27.70;71.20
11573;DHT22;5842;52.426;4.886;2022-07-04T09:55:24;27.40;70.80
11573;DHT22;5842;52.426;4.886;2022-07-04T09:57:51;26.80;72.50
11573;DHT22;5842;52.426;4.886;2022-07-04T10:00:20;26.00;73.30
11573;DHT22;5842;52.426;4.886;2022-07-04T10:02:48;25.70;75.40
11573;DHT22;5842;52.426;4.886;2022-07-04T10:05:20;25.80;76.40
11573;DHT22;5842;52.426;4.886;2022-07-04T10:07:49;25.90;74.20
11573;DHT22;5842;52.426;4.886;2022-07-04T10:10:31;26.00;75.80
11573;DHT22;5842;52.426;4.886;2022-07-04T10:13:01;26.20;74.20
11573;DHT22;5842;52.426;4.886;2022-07-04T10:15:29;26.30;75.00
11573;DHT22;5842;52.426;4.886;2022-07-04T10:17:56;25.90;72.10
11573;DHT22;5842;52.426;4.886;2022-07-04T10:20:24;25.50;74.20
11573;DHT22;5842;52.426;4.886;2022-07-04T10:22:53;24.70;75.10
11573;DHT22;5842;52.426;4.886;2022-07-04T10:25:20;24.70;74.90
11573;DHT22;5842;52.426;4.886;2022-07-04T10:27:48;24.90;77.60
11573;DHT22;5842;52.426;4.886;2022-07-04T10:30:21;24.90;74.80
11573;DHT22;5842;52.426;4.886;2022-07-04T10:32:49;25.10;75.90
11573;DHT22;5842;52.426;4.886;2022-07-04T10:35:47;25.20;75.80
11573;DHT22;5842;52.426;4.886;2022-07-04T10:38:17;25.20;73.30
11573;DHT22;5842;52.426;4.886;2022-07-04T10:40:48;25.20;74.60
11573;DHT22;5842;52.426;4.886;2022-07-04T10:43:37;25.20;75.70
11573;DHT22;5842;52.426;4.886;2022-07-04T10:48:56;25.30;71.90
11573;DHT22;5842;52.426;4.886;2022-07-04T10:51:35;25.20;70.60
11573;DHT22;5842;52.426;4.886;2022-07-04T10:54:06;25.20;74.20
11573;DHT22;5842;52.426;4.886;2022-07-04T10:56:45;25.20;71.70
11573;DHT22;5842;52.426;4.886;2022-07-04T10:59:15;25.10;70.00
11573;DHT22;5842;52.426;4.886;2022-07-04T11:01:48;25.00;69.90
11573;DHT22;5842;52.426;4.886;2022-07-04T11:04:50;25.10;73.30
11573;DHT22;5842;52.426;4.886;2022-07-04T11:07:20;25.00;69.40
11573;DHT22;5842;52.426;4.886;2022-07-04T11:10:18;24.90;67.80
11573;DHT22;5842;52.426;4.886;2022-07-04T11:16:06;24.90;68.60
11573;DHT22;5842;52.426;4.886;2022-07-04T11:18:41;25.00;71.00
11573;DHT22;5842;52.426;4.886;2022-07-04T11:21:16;25.20;71.90
11573;DHT22;5842;52.426;4.886;2022-07-04T11:23:49;25.40;69.70
11573;DHT22;5842;52.426;4.886;2022-07-04T11:26:19;25.50;69.00
11573;DHT22;5842;52.426;4.886;2022-07-04T11:28:46;25.70;70.30
11573;DHT22;5842;52.426;4.886;2022-07-04T11:31:14;25.70;70.20
11573;DHT22;5842;52.426;4.886;2022-07-04T11:33:42;25.70;69.30
11573;DHT22;5842;52.426;4.886;2022-07-04T11:36:11;25.70;69.80
11573;DHT22;5842;52.426;4.886;2022-07-04T11:38:48;25.70;66.10
11573;DHT22;5842;52.426;4.886;2022-07-04T11:41:18;25.60;68.00
11573;DHT22;5842;52.426;4.886;2022-07-04T11:44:04;25.60;70.30
11573;DHT22;5842;52.426;4.886;2022-07-04T11:46:49;25.70;69.10
11573;DHT22;5842;52.426;4.886;2022-07-04T11:49:16;25.80;67.20
11573;DHT22;5842;52.426;4.886;2022-07-04T11:51:46;25.80;68.10
11573;DHT22;5842;52.426;4.886;2022-07-04T11:54:13;25.70;67.60
11573;DHT22;5842;52.426;4.886;2022-07-04T11:56:42;25.60;65.80
11573;DHT22;5842;52.426;4.886;2022-07-04T11:59:11;25.60;69.10
11573;DHT22;5842;52.426;4.886;2022-07-04T12:01:39;25.70;66.50
11573;DHT22;5842;52.426;4.886;2022-07-04T12:04:14;25.60;64.30
11573;DHT22;5842;52.426;4.886;2022-07-04T12:06:42;25.60;67.00
11573;DHT22;5842;52.426;4.886;2022-07-04T12:09:09;25.50;67.00
11573;DHT22;5842;52.426;4.886;2022-07-04T12:11:56;25.70;69.80
11573;DHT22;5842;52.426;4.886;2022-07-04T12:14:23;25.80;68.20
11573;DHT22;5842;52.426;4.886;2022-07-04T12:17:09;25.80;68.40
11573;DHT22;5842;52.426;4.886;2022-07-04T12:19:36;25.90;67.90
11573;DHT22;5842;52.426;4.886;2022-07-04T12:22:04;25.90;67.70
11573;DHT22;5842;52.426;4.886;2022-07-04T12:24:40;25.90;68.40
11573;DHT22;5842;52.426;4.886;2022-07-04T12:27:17;25.90;69.50
11573;DHT22;5842;52.426;4.886;2022-07-04T12:29:49;26.00;67.50
11573;DHT22;5842;52.426;4.886;2022-07-04T12:32:16;25.90;68.90
11573;DHT22;5842;52.426;4.886;2022-07-04T12:34:44;25.70;70.20
11573;DHT22;5842;52.426;4.886;2022-07-04T12:37:13;25.90;72.20
11573;DHT22;5842;52.426;4.886;2022-07-04T12:39:41;26.00;71.60
11573;DHT22;5842;52.426;4.886;2022-07-04T12:42:11;26.20;71.40
11573;DHT22;5842;52.426;4.886;2022-07-04T12:44:41;26.20;69.60
11573;DHT22;5842;52.426;4.886;2022-07-04T12:47:11;26.30;69.20
11573;DHT22;5842;52.426;4.886;2022-07-04T12:49:42;26.30;72.00
11573;DHT22;5842;52.426;4.886;2022-07-04T12:52:12;26.30;69.00
11573;DHT22;5842;52.426;4.886;2022-07-04T12:54:41;26.30;67.80
11573;DHT22;5842;52.426;4.886;2022-07-04T12:57:11;26.00;66.70
11573;DHT22;5842;52.426;4.886;2022-07-04T12:59:42;25.70;67.50
11573;DHT22;5842;52.426;4.886;2022-07-04T13:02:10;25.40;66.50
11573;DHT22;5842;52.426;4.886;2022-07-04T13:04:38;25.30;69.80
11573;DHT22;5842;52.426;4.886;2022-07-04T13:07:16;25.30;68.70
11573;DHT22;5842;52.426;4.886;2022-07-04T13:09:44;25.50;70.30
11573;DHT22;5842;52.426;4.886;2022-07-04T13:12:13;25.50;70.60
11573;DHT22;5842;52.426;4.886;2022-07-04T13:14:59;25.60;72.50
11573;DHT22;5842;52.426;4.886;2022-07-04T13:17:26;25.70;71.00
11573;DHT22;5842;52.426;4.886;2022-07-04T13:19:53;25.80;69.80
11573;DHT22;5842;52.426;4.886;2022-07-04T13:22:22;25.80;72.90
11573;DHT22;5842;52.426;4.886;2022-07-04T13:24:50;25.70;67.00
11573;DHT22;5842;52.426;4.886;2022-07-04T13:27:18;25.50;69.90
11573;DHT22;5842;52.426;4.886;2022-07-04T13:29:45;25.50;72.50
11573;DHT22;5842;52.426;4.886;2022-07-04T13:32:14;25.50;70.90
11573;DHT22;5842;52.426;4.886;2022-07-04T13:34:42;25.60;69.90
11573;DHT22;5842;52.426;4.886;2022-07-04T13:37:09;25.80;73.10
11573;DHT22;5842;52.426;4.886;2022-07-04T13:39:36;25.80;69.90
11573;DHT22;5842;52.426;4.886;2022-07-04T13:42:03;25.80;69.60
11573;DHT22;5842;52.426;4.886;2022-07-04T13:44:31;25.70;70.00
11573;DHT22;5842;52.426;4.886;2022-07-04T13:46:58;25.80;71.70
11573;DHT22;5842;52.426;4.886;2022-07-04T13:49:27;25.80;70.60
11573;DHT22;5842;52.426;4.886;2022-07-04T13:51:54;25.90;70.70
11573;DHT22;5842;52.426;4.886;2022-07-04T13:54:21;25.70;68.70
11573;DHT22;5842;52.426;4.886;2022-07-04T13:56:48;25.50;70.20
11573;DHT22;5842;52.426;4.886;2022-07-04T13:59:16;25.50;71.40
11573;DHT22;5842;52.426;4.886;2022-07-04T14:01:44;25.60;71.80
11573;DHT22;5842;52.426;4.886;2022-07-04T14:04:13;25.60;70.30
11573;DHT22;5842;52.426;4.886;2022-07-04T14:06:41;25.50;69.40
11573;DHT22;5842;52.426;4.886;2022-07-04T14:09:09;25.60;70.80
11573;DHT22;5842;52.426;4.886;2022-07-04T14:11:36;25.50;70.70
11573;DHT22;5842;52.426;4.886;2022-07-04T14:14:03;25.60;72.50
11573;DHT22;5842;52.426;4.886;2022-07-04T14:16:30;25.50;71.40
11573;DHT22;5842;52.426;4.886;2022-07-04T14:18:58;25.50;72.70
11573;DHT22;5842;52.426;4.886;2022-07-04T14:21:25;25.50;72.10
11573;DHT22;5842;52.426;4.886;2022-07-04T14:23:53;25.30;72.10
11573;DHT22;5842;52.426;4.886;2022-07-04T14:26:20;25.20;71.80
11573;DHT22;5842;52.426;4.886;2022-07-04T14:28:50;25.20;72.60
11573;DHT22;5842;52.426;4.886;2022-07-04T14:31:18;25.10;70.50
11573;DHT22;5842;52.426;4.886;2022-07-04T14:33:45;25.00;69.80
11573;DHT22;5842;52.426;4.886;2022-07-04T14:36:12;24.90;71.10
11573;DHT22;5842;52.426;4.886;2022-07-04T14:38:39;24.80;73.40
11573;DHT22;5842;52.426;4.886;2022-07-04T14:41:08;24.90;72.70
11573;DHT22;5842;52.426;4.886;2022-07-04T14:43:45;25.00;74.20
11573;DHT22;5842;52.426;4.886;2022-07-04T14:46:14;24.90;69.50
11573;DHT22;5842;52.426;4.886;2022-07-04T14:48:41;24.90;74.20
11573;DHT22;5842;52.426;4.886;2022-07-04T14:51:08;24.90;75.00
11573;DHT22;5842;52.426;4.886;2022-07-04T14:53:36;24.90;75.10
11573;DHT22;5842;52.426;4.886;2022-07-04T14:56:05;25.00;73.10
11573;DHT22;5842;52.426;4.886;2022-07-04T14:58:33;25.10;72.50
11573;DHT22;5842;52.426;4.886;2022-07-04T15:01:01;24.90;72.90
11573;DHT22;5842;52.426;4.886;2022-07-04T15:03:28;24.90;72.70
11573;DHT22;5842;52.426;4.886;2022-07-04T15:05:55;24.80;72.50
11573;DHT22;5842;52.426;4.886;2022-07-04T15:08:22;24.90;70.60
11573;DHT22;5842;52.426;4.886;2022-07-04T15:10:49;24.80;73.90
11573;DHT22;5842;52.426;4.886;2022-07-04T15:13:17;24.90;74.40
11573;DHT22;5842;52.426;4.886;2022-07-04T15:15:45;24.80;73.90
11573;DHT22;5842;52.426;4.886;2022-07-04T15:18:12;24.90;74.80
11573;DHT22;5842;52.426;4.886;2022-07-04T15:20:39;25.00;74.10
11573;DHT22;5842;52.426;4.886;2022-07-04T15:23:24;25.00;73.90
11573;DHT22;5842;52.426;4.886;2022-07-04T15:26:10;24.90;73.80
11573;DHT22;5842;52.426;4.886;2022-07-04T15:28:37;24.90;74.90
11573;DHT22;5842;52.426;4.886;2022-07-04T15:31:06;24.80;73.90
11573;DHT22;5842;52.426;4.886;2022-07-04T15:33:33;24.90;74.30
11573;DHT22;5842;52.426;4.886;2022-07-04T15:36:01;25.10;75.50
11573;DHT22;5842;52.426;4.886;2022-07-04T15:38:28;25.00;74.30
11573;DHT22;5842;52.426;4.886;2022-07-04T15:40:55;24.90;73.80
11573;DHT22;5842;52.426;4.886;2022-07-04T15:43:24;24.70;74.40
11573;DHT22;5842;52.426;4.886;2022-07-04T15:45:51;24.70;75.80
11573;DHT22;5842;52.426;4.886;2022-07-04T15:48:23;24.80;73.90
11573;DHT22;5842;52.426;4.886;2022-07-04T15:50:51;24.60;72.40
11573;DHT22;5842;52.426;4.886;2022-07-04T15:53:18;24.50;74.70
11573;DHT22;5842;52.426;4.886;2022-07-04T15:55:45;24.40;73.40
11573;DHT22;5842;52.426;4.886;2022-07-04T15:58:12;24.30;76.00
11573;DHT22;5842;52.426;4.886;2022-07-04T16:00:39;24.30;72.30
11573;DHT22;5842;52.426;4.886;2022-07-04T16:03:07;24.20;77.60
11573;DHT22;5842;52.426;4.886;2022-07-04T16:05:35;24.10;75.20
11573;DHT22;5842;52.426;4.886;2022-07-04T16:08:02;24.00;75.30
11573;DHT22;5842;52.426;4.886;2022-07-04T16:10:30;23.60;74.80
11573;DHT22;5842;52.426;4.886;2022-07-04T16:12:57;23.30;75.20
11573;DHT22;5842;52.426;4.886;2022-07-04T16:15:24;23.20;76.60
11573;DHT22;5842;52.426;4.886;2022-07-04T16:17:51;23.10;77.30
11573;DHT22;5842;52.426;4.886;2022-07-04T16:20:18;23.10;77.60
11573;DHT22;5842;52.426;4.886;2022-07-04T16:22:49;23.10;78.60
11573;DHT22;5842;52.426;4.886;2022-07-04T16:25:16;23.00;78.20
11573;DHT22;5842;52.426;4.886;2022-07-04T16:27:43;22.80;77.90
11573;DHT22;5842;52.426;4.886;2022-07-04T16:30:13;22.60;76.90
11573;DHT22;5842;52.426;4.886;2022-07-04T16:32:40;22.50;77.10
11573;DHT22;5842;52.426;4.886;2022-07-04T16:35:09;22.40;78.80
11573;DHT22;5842;52.426;4.886;2022-07-04T16:37:37;22.40;79.70
11573;DHT22;5842;52.426;4.886;2022-07-04T16:40:07;22.30;78.10
11573;DHT22;5842;52.426;4.886;2022-07-04T16:42:34;22.20;79.00
11573;DHT22;5842;52.426;4.886;2022-07-04T16:45:02;22.10;80.10
11573;DHT22;5842;52.426;4.886;2022-07-04T16:47:30;22.00;79.00
11573;DHT22;5842;52.426;4.886;2022-07-04T16:49:57;21.90;80.50
11573;DHT22;5842;52.426;4.886;2022-07-04T16:52:24;21.90;80.30
11573;DHT22;5842;52.426;4.886;2022-07-04T16:54:51;21.80;82.10
11573;DHT22;5842;52.426;4.886;2022-07-04T16:57:20;21.80;82.30
11573;DHT22;5842;52.426;4.886;2022-07-04T16:59:47;21.80;83.00
11573;DHT22;5842;52.426;4.886;2022-07-04T17:02:14;21.70;81.90
11573;DHT22;5842;52.426;4.886;2022-07-04T17:04:42;21.70;83.00
11573;DHT22;5842;52.426;4.886;2022-07-04T17:07:09;21.60;82.80